tititudorancea.com
Station Historical Data
Daily Summary for July 12, 2018 Units:  Metric    English   Both
« Previous Day
Next Day »
Daily Weekly Monthly Yearly Custom
  High: Low: Average:
Temperature: -17.8 °C -0.9 °C 2.6 °C
Dew Point: -17.8 °C -1.6 °C 1.6 °C
Humidity: Humidity % 75 % 92 %
Wind Speed: 0 km/h 0 km/h 2.4 km/h
Wind Gust: 0 km/h - -
Wind:- - SSE
Pressure: 0 hPa 1021.2 hPa -
Precipitation: 0.25 mm    
Historical Graphs
 
 
Ararat weather Find more about Weather in Ararat, AU


 



 


Tabular Data for July 12, 2018
Time Temperature Dew Point Pressure Wind Wind Speed Wind Gust Humidity Rainfall Rate (Hourly)
-17.8 °C -17.8 °C 0 hPa Calm     Humidity % 0 mm
00:04 2.2 °C 1.3 °C 1021.6 hPa Calm     94 % 0 mm
00:09 2.1 °C 1.2 °C 1021.6 hPa Calm     94 % 0 mm
00:14 2.1 °C 1.4 °C 1021.6 hPa NNE 3.7 km/h 1.6 km/h 95 % 0 mm
00:19 2.2 °C 1.5 °C 1021.6 hPa North 5.6 km/h 2.1 km/h 95 % 0 mm
00:24 2.3 °C 1.6 °C 1021.6 hPa NNE 5.6 km/h 2.3 km/h 95 % 0 mm
00:29 2.3 °C 1.4 °C 1021.6 hPa NNE 5.6 km/h 3.5 km/h 94 % 0 mm
00:34 2.3 °C 1.6 °C 1021.6 hPa Calm   0.5 km/h 95 % 0 mm
00:39 2.4 °C 1.7 °C 1021.6 hPa NNE 1.9 km/h   95 % 0 mm
00:44 2.2 °C 1.3 °C 1021.9 hPa Calm     94 % 0 mm
00:49 2.1 °C 1.2 °C 1021.9 hPa Calm     94 % 0 mm
00:54 1.9 °C 1 °C 1021.9 hPa Calm     94 % 0 mm
00:59 1.6 °C 0.7 °C 1021.9 hPa Calm     94 % 0 mm
01:04 1.3 °C 0.4 °C 1021.9 hPa Calm     94 % 0 mm
01:09 0.8 °C -0.2 °C 1021.9 hPa Calm     93 % 0 mm
01:14 0.6 °C -0.2 °C 1021.9 hPa Calm     94 % 0 mm
01:19 0.4 °C -0.4 °C 1021.6 hPa Calm     94 % 0 mm
01:24 0.3 °C -0.6 °C 1021.6 hPa Calm     94 % 0 mm
01:29 0.2 °C -0.7 °C 1021.6 hPa Calm     94 % 0 mm
01:34 0.1 °C -0.8 °C 1021.6 hPa Calm     94 % 0 mm
01:39 -0.1 °C -0.9 °C 1021.9 hPa Calm     94 % 0 mm
01:44 -0.2 °C -1 °C 1021.6 hPa Calm     94 % 0 mm
01:49 -0.1 °C -0.8 °C 1021.6 hPa Calm     95 % 0 mm
01:54 -0.1 °C -0.8 °C 1021.6 hPa Calm     95 % 0 mm
01:59 -0.1 °C -0.9 °C 1021.6 hPa Calm     94 % 0 mm
02:04 -0.3 °C -1.1 °C 1021.6 hPa Calm     94 % 0 mm
02:09 -0.2 °C -0.9 °C 1021.6 hPa Calm     95 % 0 mm
02:14 -0.2 °C -0.9 °C 1021.6 hPa Calm     95 % 0 mm
02:19 -0.2 °C -1 °C 1021.6 hPa Calm     94 % 0 mm
02:24 -0.2 °C -1.1 °C 1021.6 hPa Calm     94 % 0 mm
02:29 -0.2 °C -0.9 °C 1021.6 hPa Calm     95 % 0 mm
02:34 -0.2 °C -1.1 °C 1021.9 hPa Calm     94 % 0 mm
02:39 -0.4 °C -1.2 °C 1021.9 hPa Calm     94 % 0 mm
02:44 -0.4 °C -1.1 °C 1021.9 hPa Calm     95 % 0 mm
02:49 -0.4 °C -1.3 °C 1021.6 hPa Calm     94 % 0 mm
02:54 -0.3 °C -1.1 °C 1021.6 hPa North 1.9 km/h   95 % 0 mm
02:59 -0.3 °C -1.1 °C 1021.6 hPa Calm   0.2 km/h 95 % 0 mm
03:04 -0.3 °C -1.1 °C 1021.6 hPa Calm     95 % 0 mm
03:09 -0.3 °C -1.1 °C 1021.6 hPa Calm     95 % 0 mm
03:14 -0.4 °C -1.1 °C 1021.6 hPa Calm     95 % 0 mm
03:19 -0.4 °C -1.1 °C 1021.6 hPa Calm     95 % 0 mm
03:24 -0.4 °C -1.1 °C 1021.6 hPa Calm     95 % 0 mm
03:29 -0.4 °C -1.1 °C 1021.6 hPa Calm     95 % 0 mm
03:34 -0.4 °C -1.1 °C 1021.6 hPa Calm     95 % 0 mm
03:39 -0.3 °C -1 °C 1021.6 hPa Calm     95 % 0 mm
03:44 -0.2 °C -0.9 °C 1021.6 hPa NNE 1.9 km/h   95 % 0 mm
03:49 -0.2 °C -0.9 °C 1021.6 hPa Calm     95 % 0 mm
03:54 -0.2 °C -0.9 °C 1021.6 hPa Calm     95 % 0 mm
03:59 -0.2 °C -0.9 °C 1021.6 hPa Calm     95 % 0 mm
04:04 -0.2 °C -0.9 °C 1021.6 hPa Calm     95 % 0 mm
04:09 -0.2 °C -0.9 °C 1021.6 hPa Calm     95 % 0 mm
04:14 -0.2 °C -0.9 °C 1021.6 hPa Calm     95 % 0 mm
04:19 -0.3 °C -1 °C 1021.2 hPa Calm     95 % 0 mm
04:24 -0.3 °C -1 °C 1021.6 hPa Calm     95 % 0 mm
04:29 -0.2 °C -0.9 °C 1021.6 hPa Calm     95 % 0 mm
04:34 -0.2 °C -0.9 °C 1021.6 hPa Calm     95 % 0 mm
04:39 -0.1 °C -0.8 °C 1021.6 hPa Calm     95 % 0 mm
04:44 -0.1 °C -0.8 °C 1021.6 hPa North 1.9 km/h   95 % 0 mm
04:49 -0.1 °C -0.8 °C 1021.6 hPa NNE 1.9 km/h 0.5 km/h 95 % 0 mm
04:54 -0.2 °C -0.9 °C 1021.6 hPa North 1.9 km/h   95 % 0 mm
04:59 -0.3 °C -1 °C 1021.6 hPa Calm   0.2 km/h 95 % 0 mm
05:04 -0.3 °C -1 °C 1021.9 hPa Calm   0.3 km/h 95 % 0 mm
05:09 -0.2 °C -0.9 °C 1021.6 hPa Calm   0.6 km/h 95 % 0 mm
05:14 -0.2 °C -0.9 °C 1021.6 hPa North 3.7 km/h   95 % 0 mm
05:19 -0.2 °C -0.9 °C 1021.9 hPa NNE 3.2 km/h 1.4 km/h 95 % 0 mm
05:24 -0.2 °C -0.9 °C 1021.9 hPa Calm     95 % 0 mm
05:29 -0.1 °C -0.8 °C 1021.9 hPa Calm     95 % 0 mm
05:34 -0.1 °C -0.8 °C 1021.9 hPa Calm     95 % 0 mm
05:39 0 °C -0.7 °C 1021.9 hPa Calm     95 % 0 mm
05:44 0.1 °C -0.7 °C 1021.9 hPa Calm     95 % 0 mm
05:49 0.1 °C -0.7 °C 1021.9 hPa Calm     95 % 0 mm
05:54 0.1 °C -0.6 °C 1021.9 hPa Calm     95 % 0 mm
05:59 0.2 °C -0.4 °C 1021.9 hPa Calm     96 % 0 mm
06:04 0.3 °C -0.3 °C 1022.2 hPa Calm     96 % 0 mm
06:09 0.3 °C -0.2 °C 1022.2 hPa Calm     96 % 0 mm
06:14 0.4 °C -0.2 °C 1022.2 hPa Calm     96 % 0 mm
06:19 0.4 °C -0.2 °C 1022.2 hPa Calm     96 % 0 mm
06:24 0.5 °C -0.1 °C 1022.2 hPa Calm     96 % 0 mm
06:29 0.5 °C -0.1 °C 1022.2 hPa Calm     96 % 0 mm
06:34 0.5 °C -0.2 °C 1022.2 hPa Calm     95 % 0 mm
06:39 0.4 °C -0.3 °C 1022.2 hPa Calm     95 % 0 mm
06:44 0.4 °C -0.3 °C 1022.2 hPa Calm     95 % 0 mm
06:49 0.3 °C -0.4 °C 1022.2 hPa Calm     95 % 0 mm
06:54 0.3 °C -0.4 °C 1022.2 hPa Calm     95 % 0 mm
06:59 0.4 °C -0.2 °C 1022.2 hPa Calm     96 % 0 mm
07:04 0.3 °C -0.4 °C 1022.6 hPa Calm     95 % 0 mm
07:09 0.2 °C -0.6 °C 1022.6 hPa Calm     95 % 0 mm
07:14 0 °C -0.7 °C 1022.6 hPa Calm     95 % 0 mm
07:19 -0.2 °C -0.9 °C 1022.6 hPa Calm     95 % 0 mm
07:24 -0.2 °C -0.9 °C 1022.6 hPa Calm     95 % 0 mm
07:29 -0.3 °C -1 °C 1022.9 hPa Calm     95 % 0 mm
07:34 -0.4 °C -1.1 °C 1022.9 hPa Calm     95 % 0 mm
07:39 -0.4 °C -1.1 °C 1022.9 hPa NNE 3.7 km/h 1.3 km/h 95 % 0 mm
07:44 -0.4 °C -1.1 °C 1023.2 hPa North 3.7 km/h 1.1 km/h 95 % 0 mm
07:49 -0.3 °C -1.1 °C 1023.2 hPa North 5.6 km/h 1 km/h 95 % 0 mm
07:54 -0.4 °C -1.1 °C 1023.2 hPa North 3.7 km/h 1.8 km/h 95 % 0 mm
07:59 -0.6 °C -1.3 °C 1023.2 hPa NNE 5.6 km/h 1.9 km/h 95 % 0 mm
08:04 -0.7 °C -1.4 °C 1023.2 hPa NNE 3.7 km/h 0.6 km/h 95 % 0 mm
08:09 -0.9 °C -1.6 °C 1023.2 hPa North 3.7 km/h 1.1 km/h 95 % 0 mm
08:14 -0.9 °C -1.6 °C 1022.9 hPa NNE 5.6 km/h 3.2 km/h 95 % 0 mm
08:19 -0.8 °C -1.6 °C 1022.9 hPa NNE 3.7 km/h 0.5 km/h 95 % 0 mm
08:24 -0.7 °C -1.2 °C 1022.9 hPa Calm     96 % 0 mm
08:29 -0.5 °C -1.1 °C 1023.2 hPa Calm     96 % 0 mm
08:34 -0.3 °C -0.9 °C 1023.2 hPa Calm     96 % 0 mm
08:39 -0.1 °C -0.6 °C 1023.2 hPa Calm     96 % 0 mm
08:44 0.3 °C -0.2 °C 1023.2 hPa Calm     97 % 0 mm
08:49 0.8 °C 0.4 °C 1023.2 hPa Calm     97 % 0 mm
08:54 0.9 °C 0.5 °C 1023.2 hPa Calm     97 % 0 mm
08:59 0.9 °C 0.4 °C 1023.2 hPa Calm     96 % 0 mm
09:04 1 °C 0.4 °C 1023.2 hPa NNE 1.9 km/h   96 % 0 mm
09:09 1.2 °C 0.7 °C 1023.6 hPa North 1.9 km/h 0.6 km/h 96 % 0 mm
09:14 1.5 °C 0.9 °C 1023.6 hPa NNE 1.9 km/h 0.2 km/h 96 % 0 mm
09:19 1.8 °C 1.3 °C 1023.6 hPa Calm     96 % 0 mm
09:24 2.1 °C 1.7 °C 1023.2 hPa Calm     97 % 0 mm
09:29 2.6 °C 2.1 °C 1023.6 hPa Calm     97 % 0 mm
09:34 3.1 °C 2.6 °C 1023.6 hPa North 1.9 km/h 0.6 km/h 97 % 0.25 mm
09:39 3.3 °C 2.9 °C 1023.6 hPa NNE 1.6 km/h 0.2 km/h 97 % 0.25 mm
09:44 3.7 °C 3.2 °C 1023.6 hPa NNE 1.9 km/h 0.3 km/h 97 % 0.25 mm
09:49 3.9 °C 3.4 °C 1023.6 hPa North 3.7 km/h 0.5 km/h 97 % 0.25 mm
09:54 3.8 °C 3.3 °C 1023.6 hPa North 1.9 km/h 2.1 km/h 96 % 0.25 mm
09:59 3.6 °C 2.8 °C 1023.6 hPa North 3.7 km/h 3.2 km/h 95 % 0.25 mm
10:04 3.6 °C 2.9 °C 1023.6 hPa North 6.4 km/h 4.3 km/h 95 % 0.25 mm
10:09 3.6 °C 2.8 °C 1023.9 hPa NNE 5.6 km/h 2.7 km/h 95 % 0.25 mm
10:14 3.7 °C 3.1 °C 1023.6 hPa North 5.6 km/h 1.9 km/h 96 % 0.25 mm
10:19 3.9 °C 3.3 °C 1023.6 hPa North 6.4 km/h 3.7 km/h 96 % 0.25 mm
10:24 4.3 °C 3.7 °C 1023.6 hPa North 5.6 km/h 4.7 km/h 96 % 0.25 mm
10:29 4.3 °C 3.8 °C 1023.6 hPa North 13 km/h 8.5 km/h 96 % 0.25 mm
10:34 4.3 °C 3.6 °C 1023.6 hPa North 11.1 km/h 4.2 km/h 95 % 0 mm
10:39 4.4 °C 3.7 °C 1023.6 hPa NNE 11.1 km/h 7.7 km/h 95 % 0 mm
10:44 4.6 °C 3.9 °C 1023.6 hPa North 13 km/h 7.1 km/h 95 % 0 mm
10:49 4.7 °C 3.8 °C 1023.6 hPa North 9.7 km/h 7.1 km/h 94 % 0 mm
10:54 4.9 °C 4.1 °C 1023.6 hPa NW 9.7 km/h 9.7 km/h 94 % 0 mm
10:59 5.1 °C 4.2 °C 1023.6 hPa WNW 11.1 km/h 7.9 km/h 94 % 0 mm
11:04 5.1 °C 3.9 °C 1023.6 hPa WSW 11.1 km/h 8.4 km/h 92 % 0 mm
11:09 5.4 °C 4.3 °C 1023.2 hPa West 9.3 km/h 7.9 km/h 93 % 0 mm
11:14 5.5 °C 4.3 °C 1023.2 hPa WSW 13 km/h 6.8 km/h 92 % 0 mm
11:19 5.7 °C 4.5 °C 1023.2 hPa WSW 5.6 km/h 3.4 km/h 92 % 0 mm
11:24 6.1 °C 4.7 °C 1023.2 hPa WSW 6.4 km/h 5.3 km/h 91 % 0 mm
11:29 6.3 °C 4.8 °C 1022.9 hPa WSW 7.4 km/h 6.3 km/h 90 % 0 mm
11:34 6.4 °C 4.9 °C 1022.9 hPa WSW 7.4 km/h 4.3 km/h 90 % 0 mm
11:39 6.6 °C 4.9 °C 1023.2 hPa WSW 9.3 km/h 6.8 km/h 89 % 0 mm
11:44 6.7 °C 5.1 °C 1022.9 hPa WSW 5.6 km/h 3.4 km/h 89 % 0 mm
11:49 7.1 °C 5.3 °C 1022.9 hPa WSW 5.6 km/h 2.6 km/h 88 % 0 mm
11:54 7.2 °C 5.1 °C 1022.9 hPa WSW 7.4 km/h 3.9 km/h 86 % 0 mm
11:59 7.2 °C 5 °C 1022.9 hPa WSW 7.4 km/h 1.8 km/h 86 % 0 mm
12:04 7.7 °C 5.5 °C 1022.9 hPa WSW 9.3 km/h 4.5 km/h 86 % 0 mm
12:09 7.8 °C 5.3 °C 1022.9 hPa WSW 9.3 km/h 6.9 km/h 84 % 0 mm
12:14 8.1 °C 5.2 °C 1022.6 hPa North 5.6 km/h 4.3 km/h 82 % 0 mm
12:19 8.3 °C 4.9 °C 1022.6 hPa WSW 14.8 km/h 2.4 km/h 79 % 0 mm
12:24 8.5 °C 4.7 °C 1022.6 hPa SW 9.3 km/h 5.6 km/h 77 % 0 mm
12:29 8.2 °C 4.1 °C 1022.6 hPa SW 13 km/h 9.3 km/h 75 % 0 mm
12:34 8.2 °C 4.2 °C 1022.6 hPa SW 13 km/h 4.3 km/h 76 % 0 mm
12:39 8.4 °C 4.4 °C 1022.6 hPa SW 11.1 km/h 8 km/h 76 % 0 mm
12:44 8.7 °C 4.7 °C 1022.6 hPa SW 9.7 km/h 7.7 km/h 76 % 0 mm
12:49 8.6 °C 4.6 °C 1022.2 hPa SW 6.4 km/h 6.9 km/h 76 % 0 mm
12:54 8.5 °C 4.5 °C 1022.2 hPa SW 11.1 km/h 5 km/h 76 % 0 mm
12:59 8.4 °C 4.3 °C 1022.2 hPa SW 7.4 km/h 7.9 km/h 75 % 0 mm
13:04 8.6 °C 4.6 °C 1022.2 hPa SW 9.3 km/h 5.5 km/h 76 % 0 mm
13:09 8.6 °C 4.6 °C 1021.9 hPa SW 9.3 km/h 2.4 km/h 76 % 0 mm
13:14 8.9 °C 5.1 °C 1021.9 hPa SSW 4.8 km/h 4.5 km/h 77 % 0 mm
13:19 8.9 °C 4.7 °C 1021.9 hPa SW 7.4 km/h 4.7 km/h 75 % 0 mm
18:34 6.6 °C 4.6 °C 1021.9 hPa SSW 5.6 km/h 3.4 km/h 87 % 0 mm
18:39 6.3 °C 4.3 °C 1021.9 hPa SSW 3.7 km/h 2.7 km/h 87 % 0 mm
18:44 6.1 °C 4.1 °C 1021.9 hPa South 3.7 km/h 2.7 km/h 87 % 0 mm
18:49 5.9 °C 4.1 °C 1021.9 hPa South 3.7 km/h 0.2 km/h 88 % 0 mm
18:54 5.7 °C 3.9 °C 1021.9 hPa Calm     88 % 0 mm
18:59 5.5 °C 3.7 °C 1022.2 hPa Calm     88 % 0 mm
19:04 5.1 °C 3.1 °C 1022.2 hPa South 1.9 km/h   87 % 0 mm
19:09 4.7 °C 3.1 °C 1022.2 hPa SSW 3.7 km/h 1.4 km/h 89 % 0 mm
19:14 4.7 °C 3.2 °C 1022.2 hPa SSW 1.9 km/h   90 % 0 mm
19:19 4.7 °C 3.2 °C 1022.2 hPa Calm     90 % 0 mm
19:24 4.6 °C 3.1 °C 1022.6 hPa Calm     90 % 0 mm
19:29 4.6 °C 3.2 °C 1022.6 hPa Calm     91 % 0 mm
19:34 4.5 °C 3.2 °C 1022.6 hPa Calm     91 % 0 mm
19:39 4.5 °C 3.2 °C 1022.6 hPa South 1.6 km/h 0.2 km/h 91 % 0 mm
19:44 4.7 °C 3.5 °C 1022.6 hPa South 3.7 km/h 0.2 km/h 92 % 0 mm
19:49 4.8 °C 3.6 °C 1022.6 hPa Calm     92 % 0 mm
19:54 4.8 °C 3.6 °C 1022.6 hPa Calm     92 % 0 mm
19:59 4.8 °C 3.6 °C 1022.9 hPa Calm     92 % 0 mm
20:04 4.9 °C 3.9 °C 1022.9 hPa Calm     93 % 0 mm
20:09 5.1 °C 4 °C 1022.9 hPa Calm     93 % 0 mm
20:14 5.2 °C 4.1 °C 1022.9 hPa Calm     93 % 0 mm
20:19 5.1 °C 3.9 °C 1022.9 hPa Calm     92 % 0 mm
20:24 5 °C 3.8 °C 1022.9 hPa Calm     92 % 0 mm
20:29 4.8 °C 3.7 °C 1022.6 hPa Calm     92 % 0 mm
20:34 4.7 °C 3.6 °C 1022.6 hPa Calm     92 % 0 mm
20:39 4.6 °C 3.4 °C 1022.9 hPa Calm     92 % 0 mm
20:44 4.5 °C 3.3 °C 1022.9 hPa Calm     92 % 0 mm
20:49 4.4 °C 3.4 °C 1022.9 hPa Calm     93 % 0 mm
20:54 4.6 °C 3.5 °C 1022.9 hPa Calm     93 % 0 mm
20:59 4.4 °C 3.3 °C 1022.9 hPa Calm     92 % 0 mm
21:04 4.2 °C 3.1 °C 1022.9 hPa Calm     92 % 0 mm
21:09 3.9 °C 2.7 °C 1022.9 hPa Calm     92 % 0 mm
21:14 3.6 °C 2.4 °C 1022.9 hPa Calm     92 % 0 mm
21:19 3.4 °C 2.2 °C 1022.9 hPa Calm     92 % 0 mm
21:24 3.2 °C 2.1 °C 1022.9 hPa Calm     92 % 0 mm
21:29 3.1 °C 2.1 °C 1022.9 hPa Calm     93 % 0 mm
21:34 3 °C 2 °C 1022.9 hPa Calm     93 % 0 mm
21:39 3 °C 2 °C 1022.9 hPa Calm     93 % 0 mm
21:44 2.9 °C 1.9 °C 1022.9 hPa Calm     93 % 0 mm
21:49 2.8 °C 1.8 °C 1022.9 hPa Calm     93 % 0 mm
21:54 2.8 °C 1.8 °C 1022.9 hPa Calm     93 % 0 mm
21:59 2.7 °C 1.7 °C 1022.9 hPa Calm     93 % 0 mm
22:04 2.7 °C 1.8 °C 1022.9 hPa Calm     94 % 0 mm
22:09 2.8 °C 1.9 °C 1022.9 hPa Calm     94 % 0 mm
22:14 2.9 °C 2.1 °C 1022.9 hPa North 1.6 km/h 0.3 km/h 94 % 0 mm
22:19 3.2 °C 2.5 °C 1022.9 hPa North 1.9 km/h   95 % 0 mm
22:24 3.4 °C 2.7 °C 1022.9 hPa South 1.9 km/h   95 % 0 mm
22:29 3.7 °C 3 °C 1022.9 hPa SSW 5.6 km/h 3.4 km/h 95 % 0 mm
22:34 4 °C 3.3 °C 1022.9 hPa South 8 km/h 5.5 km/h 95 % 0 mm
22:39 4.4 °C 3.7 °C 1022.9 hPa South 7.4 km/h 6 km/h 95 % 0 mm
22:44 4.7 °C 4 °C 1022.9 hPa South 7.4 km/h 4 km/h 95 % 0 mm
22:49 4.9 °C 4.2 °C 1022.9 hPa SSW 5.6 km/h 1.4 km/h 95 % 0 mm
22:54 4.9 °C 4.2 °C 1022.9 hPa North 1.9 km/h   95 % 0 mm
22:59 4.9 °C 4.1 °C 1022.9 hPa Calm     94 % 0 mm
23:04 5 °C 4.3 °C 1022.9 hPa Calm     95 % 0 mm
23:09 5.1 °C 4.3 °C 1022.9 hPa Calm     95 % 0 mm
23:14 5.1 °C 4.2 °C 1022.9 hPa Calm     94 % 0 mm
23:19 5.2 °C 4.5 °C 1022.9 hPa SSW 5.6 km/h 3.4 km/h 95 % 0 mm
23:24 5.4 °C 4.7 °C 1022.9 hPa South 3.2 km/h 1.4 km/h 95 % 0 mm
23:29 5.5 °C 4.8 °C 1022.9 hPa Calm     95 % 0 mm
23:34 5.5 °C 4.8 °C 1022.9 hPa North 3.7 km/h   95 % 0 mm
23:39 5.4 °C 4.7 °C 1022.9 hPa Calm     95 % 0 mm
23:44 5.3 °C 4.4 °C 1022.9 hPa Calm     94 % 0 mm
23:49 5.2 °C 4.3 °C 1022.6 hPa North 1.9 km/h   94 % 0 mm
23:54 5 °C 4.1 °C 1022.9 hPa Calm     94 % 0 mm
23:59 4.9 °C 4 °C 1022.6 hPa Calm     94 % 0 mm
Ararat Weather
Compliments of Weather Underground - 2 mb
Click here to send mail.


ABOUT

Live weather data from Ararat, Victoria, Australia, 3377
Data uploaded from Cumulus every 5 minutes to Weather Underground.
This site then downloads the raw data for formatting and display.
Metric and imperial data can be displayed. Graphs and historical data available.
Includes Sun and Moon times and rain image live from BOM.

Check out Ararat Weather on Facebook, Twitter and Google +

Help support ongoing costs by checking out the ads





Follow @AraratWeather